createdAt,value
2017-06-28T00:00:03.476Z,19.3
2017-06-28T00:00:33.763Z,19.3
2017-06-28T00:01:04.857Z,19.3
2017-06-28T00:01:34.881Z,19.3
2017-06-28T00:02:05.400Z,19.3
2017-06-28T00:02:35.937Z,19.3
2017-06-28T00:04:00.321Z,19.3
2017-06-28T00:04:59.545Z,19.2
2017-06-28T00:05:58.755Z,19.2
2017-06-28T00:06:58.726Z,19.2
2017-06-28T00:07:57.444Z,19.2
2017-06-28T00:08:56.666Z,19.1
2017-06-28T00:09:55.872Z,19.1
2017-06-28T00:10:55.577Z,19.1
2017-06-28T00:11:54.670Z,19.1
2017-06-28T00:12:54.130Z,19.1
2017-06-28T00:13:53.351Z,19.1
2017-06-28T00:15:51.952Z,19
2017-06-28T00:16:51.043Z,19
2017-06-28T00:17:50.277Z,19
2017-06-28T00:18:50.026Z,18.8
2017-06-28T00:19:49.588Z,18.8
2017-06-28T00:20:48.182Z,18.8
2017-06-28T00:21:47.274Z,18.8
2017-06-28T00:22:46.986Z,18.8
2017-06-28T00:24:45.725Z,18.8
2017-06-28T00:25:44.451Z,18.8
2017-06-28T00:26:43.662Z,18.8
2017-06-28T00:27:42.891Z,18.8
2017-06-28T00:28:42.608Z,18.8
2017-06-28T00:29:41.821Z,18.7
2017-06-28T00:30:41.279Z,18.7
2017-06-28T00:31:39.991Z,18.7
2017-06-28T00:32:40.154Z,18.8
2017-06-28T00:33:38.888Z,18.8
2017-06-28T00:34:38.097Z,18.7
2017-06-28T00:35:37.309Z,18.8
2017-06-28T00:36:36.766Z,18.7
2017-06-28T00:37:35.990Z,18.7
2017-06-28T00:38:35.217Z,18.7
2017-06-28T00:39:34.437Z,18.8
2017-06-28T00:40:33.415Z,18.8
2017-06-28T00:41:32.894Z,18.8
2017-06-28T00:42:04.189Z,18.8
2017-06-28T00:42:33.581Z,18.8
2017-06-28T00:43:31.801Z,18.7
2017-06-28T00:45:29.893Z,18.8
2017-06-28T00:46:29.380Z,18.8
2017-06-28T00:47:28.836Z,18.8
2017-06-28T00:48:27.940Z,18.7
2017-06-28T00:49:27.082Z,18.7
2017-06-28T00:50:26.304Z,18.7
2017-06-28T00:51:25.513Z,18.7
2017-06-28T00:52:25.220Z,18.6
2017-06-28T00:53:24.699Z,18.6
2017-06-28T00:54:23.798Z,18.6
2017-06-28T00:55:23.022Z,18.6
2017-06-28T00:56:22.274Z,18.6
2017-06-28T00:57:21.488Z,18.7
2017-06-28T00:58:20.468Z,18.6
2017-06-28T00:59:21.596Z,18.6
2017-06-28T01:00:19.303Z,18.6
2017-06-28T01:01:18.395Z,18.6
2017-06-28T01:02:17.614Z,18.6
2017-06-28T01:03:16.697Z,18.6
2017-06-28T01:04:16.288Z,18.5
2017-06-28T01:05:15.748Z,18.5
2017-06-28T01:06:14.963Z,18.5
2017-06-28T01:07:14.066Z,18.5
2017-06-28T01:08:13.284Z,18.5
2017-06-28T01:09:13.077Z,18.5
2017-06-28T01:10:11.803Z,18.5
2017-06-28T01:11:11.569Z,18.4
2017-06-28T01:12:10.279Z,18.4
2017-06-28T01:13:10.550Z,18.5
2017-06-28T01:14:09.259Z,18.5
2017-06-28T01:15:08.356Z,18.5
2017-06-28T01:16:07.557Z,18.5
2017-06-28T01:17:07.018Z,18.5
2017-06-28T01:18:06.165Z,18.4
2017-06-28T01:19:05.376Z,18.4
2017-06-28T01:20:04.351Z,18.3
2017-06-28T01:21:04.057Z,18.4
2017-06-28T01:22:03.323Z,18.4
2017-06-28T01:23:02.843Z,18.4
2017-06-28T01:24:01.549Z,18.5
2017-06-28T01:25:00.748Z,18.5
2017-06-28T01:26:00.347Z,18.5
2017-06-28T01:26:59.446Z,18.5
2017-06-28T01:27:58.671Z,18.5
2017-06-28T01:28:58.130Z,18.5
2017-06-28T01:29:57.250Z,18.5
2017-06-28T01:30:56.476Z,18.4
2017-06-28T01:31:55.685Z,18.4
2017-06-28T01:32:55.292Z,18.5
2017-06-28T01:33:54.502Z,18.5
2017-06-28T01:34:53.967Z,18.5
2017-06-28T01:35:53.055Z,18.4
2017-06-28T01:36:52.263Z,18.4
2017-06-28T01:37:51.464Z,18.5
2017-06-28T01:38:50.674Z,18.5
2017-06-28T01:39:49.906Z,18.4
2017-06-28T01:40:49.411Z,18.4
2017-06-28T01:41:48.630Z,18.4
2017-06-28T01:42:47.602Z,18.4
2017-06-28T01:43:47.314Z,18.4
2017-06-28T01:44:46.403Z,18.4
2017-06-28T01:45:45.600Z,18.4
2017-06-28T01:46:45.060Z,18.4
2017-06-28T01:47:44.273Z,18.5
2017-06-28T01:48:43.360Z,18.4
2017-06-28T01:49:13.899Z,18.4
2017-06-28T01:49:45.015Z,18.3
2017-06-28T01:50:15.039Z,18.3
2017-06-28T01:50:45.561Z,18.3
2017-06-28T01:51:16.093Z,18.3
2017-06-28T01:52:40.620Z,18.3
2017-06-28T01:53:39.914Z,18.3
2017-06-28T01:54:39.026Z,18.2
2017-06-28T01:55:38.127Z,18.1
2017-06-28T01:56:37.349Z,18.1
2017-06-28T01:57:36.656Z,18
2017-06-28T01:58:36.130Z,18.1
2017-06-28T01:59:35.385Z,18.1
2017-06-28T02:00:35.169Z,18.1
2017-06-28T02:01:33.880Z,18.1
2017-06-28T02:02:32.969Z,18.1
2017-06-28T02:03:32.683Z,18.2
2017-06-28T02:04:32.137Z,18.2
2017-06-28T02:05:30.843Z,18.3
2017-06-28T02:06:30.059Z,18.2
2017-06-28T02:07:29.274Z,18.1
2017-06-28T02:08:28.986Z,18.1
2017-06-28T02:09:28.213Z,18.1
2017-06-28T02:10:27.689Z,18.1
2017-06-28T02:11:26.405Z,18.2
2017-06-28T02:12:25.617Z,18.1
2017-06-28T02:13:24.833Z,18.1
2017-06-28T02:14:24.551Z,18.1
2017-06-28T02:15:23.641Z,18.1
2017-06-28T02:16:22.989Z,18.1
2017-06-28T02:18:21.590Z,18.1
2017-06-28T02:19:20.826Z,18.1
2017-06-28T02:20:20.619Z,18
2017-06-28T02:21:19.212Z,18
2017-06-28T02:22:18.681Z,18
2017-06-28T02:23:17.900Z,18
2017-06-28T02:24:17.004Z,18
2017-06-28T02:25:16.223Z,17.9
2017-06-28T02:26:15.380Z,18
2017-06-28T02:27:14.589Z,18
2017-06-28T02:28:14.047Z,18
2017-06-28T02:29:13.140Z,17.9
2017-06-28T02:30:12.356Z,17.8
2017-06-28T02:31:11.580Z,17.7
2017-06-28T02:32:10.802Z,17.8
2017-06-28T02:33:10.516Z,17.8
2017-06-28T02:34:09.972Z,17.8
2017-06-28T02:35:08.683Z,17.8
2017-06-28T02:36:07.896Z,17.8
2017-06-28T02:37:07.118Z,17.8
2017-06-28T02:38:06.841Z,17.8
2017-06-28T02:39:06.052Z,17.7
2017-06-28T02:40:05.465Z,17.6
2017-06-28T02:41:04.178Z,17.6
2017-06-28T02:42:03.387Z,17.6
2017-06-28T02:43:02.999Z,17.6
2017-06-28T02:44:02.213Z,17.6
2017-06-28T02:45:01.442Z,17.6
2017-06-28T02:46:01.474Z,17.6
2017-06-28T02:46:59.687Z,17.6
2017-06-28T02:47:59.393Z,17.6
2017-06-28T02:48:58.605Z,17.7
2017-06-28T02:49:57.824Z,17.7
2017-06-28T02:50:57.035Z,17.7
2017-06-28T02:51:56.496Z,17.7
2017-06-28T02:52:55.712Z,17.6
2017-06-28T02:53:54.803Z,17.6
2017-06-28T02:54:54.017Z,17.6
2017-06-28T02:55:53.126Z,17.5
2017-06-28T02:56:52.330Z,17.5
2017-06-28T02:57:51.789Z,17.6
2017-06-28T02:58:50.887Z,17.6
2017-06-28T02:59:21.302Z,17.6
2017-06-28T02:59:51.832Z,17.6
2017-06-28T03:00:22.362Z,17.6
2017-06-28T03:00:52.880Z,17.6
2017-06-28T03:01:23.287Z,17.6
2017-06-28T03:02:48.169Z,17.7
2017-06-28T03:03:47.402Z,17.7
2017-06-28T03:04:46.504Z,17.7
2017-06-28T03:05:45.714Z,17.6
2017-06-28T03:06:44.919Z,17.6
2017-06-28T03:07:44.123Z,17.6
2017-06-28T03:08:43.351Z,17.6
2017-06-28T03:09:43.326Z,17.6
2017-06-28T03:10:42.039Z,17.6
2017-06-28T03:11:41.707Z,17.5
2017-06-28T03:12:40.481Z,17.5
2017-06-28T03:13:39.640Z,17.5
2017-06-28T03:14:39.234Z,17.5
2017-06-28T03:15:38.700Z,17.5
2017-06-28T03:16:37.991Z,17.6
2017-06-28T03:17:36.697Z,17.6
2017-06-28T03:18:35.922Z,17.6
2017-06-28T03:19:35.313Z,17.6
2017-06-28T03:20:34.289Z,17.6
2017-06-28T03:21:34.146Z,17.5
2017-06-28T03:22:33.359Z,17.5
2017-06-28T03:23:32.457Z,17.5
2017-06-28T03:24:31.678Z,17.5
2017-06-28T03:25:30.779Z,17.5
2017-06-28T03:26:29.983Z,17.4
2017-06-28T03:27:29.450Z,17.4
2017-06-28T03:28:28.679Z,17.5
2017-06-28T03:29:28.340Z,17.5
2017-06-28T03:30:27.061Z,17.5
2017-06-28T03:31:27.222Z,17.5
2017-06-28T03:33:25.066Z,17.5
2017-06-28T03:34:24.148Z,17.5
2017-06-28T03:35:23.235Z,17.5
2017-06-28T03:36:22.960Z,17.4
2017-06-28T03:37:22.732Z,17.5
2017-06-28T03:38:21.447Z,17.5
2017-06-28T03:39:20.922Z,17.5
2017-06-28T03:40:19.633Z,17.5
2017-06-28T03:41:18.857Z,17.3
2017-06-28T03:42:18.086Z,17.3
2017-06-28T03:43:17.305Z,17.3
2017-06-28T03:44:16.400Z,17.3
2017-06-28T03:45:16.380Z,17.3
2017-06-28T03:46:15.093Z,17.4
2017-06-28T03:47:14.304Z,17.3
2017-06-28T03:48:13.902Z,17.3
2017-06-28T03:49:13.157Z,17.3
2017-06-28T03:50:12.371Z,17.3
2017-06-28T03:51:11.849Z,17.3
2017-06-28T03:52:10.562Z,17.4
2017-06-28T03:53:10.284Z,17.5
2017-06-28T03:54:09.483Z,17.5
2017-06-28T03:55:08.687Z,17.5
2017-06-28T03:57:07.537Z,17.5
2017-06-28T03:58:06.244Z,17.5
2017-06-28T03:59:05.458Z,17.5
2017-06-28T04:00:04.626Z,17.5
2017-06-28T04:02:03.163Z,17.5
2017-06-28T04:03:02.918Z,17.5
2017-06-28T04:04:01.644Z,17.5
2017-06-28T04:05:01.359Z,17.6
2017-06-28T04:06:00.451Z,17.6
2017-06-28T04:06:59.669Z,17.6
2017-06-28T04:07:58.885Z,17.6
2017-06-28T04:09:58.304Z,17.6
2017-06-28T04:10:56.577Z,17.6
2017-06-28T04:11:56.258Z,17.6
2017-06-28T04:12:55.360Z,17.6
2017-06-28T04:13:54.583Z,17.6
2017-06-28T04:14:53.688Z,17.6
2017-06-28T04:15:53.156Z,17.6
2017-06-28T04:16:52.241Z,17.6
2017-06-28T04:17:51.462Z,17.6
2017-06-28T04:18:50.666Z,17.6
2017-06-28T04:19:49.883Z,17.6
2017-06-28T04:20:48.970Z,17.7
2017-06-28T04:21:48.934Z,17.7
2017-06-28T04:22:47.452Z,17.6
2017-06-28T04:23:46.943Z,17.6
2017-06-28T04:24:46.163Z,17.6
2017-06-28T04:25:45.376Z,17.7
2017-06-28T04:26:44.979Z,17.8
2017-06-28T04:28:43.851Z,17.8
2017-06-28T04:29:42.562Z,17.8
2017-06-28T04:30:41.783Z,17.8
2017-06-28T04:31:40.992Z,17.8
2017-06-28T04:32:40.707Z,17.9
2017-06-28T04:33:39.919Z,17.9
2017-06-28T04:34:39.145Z,17.9
2017-06-28T04:35:38.793Z,18
2017-06-28T04:36:37.505Z,18
2017-06-28T04:37:36.588Z,18
2017-06-28T04:38:36.315Z,18
2017-06-28T04:39:35.536Z,18
2017-06-28T04:40:35.000Z,18
2017-06-28T04:41:33.715Z,18
2017-06-28T04:42:32.798Z,18
2017-06-28T04:43:32.266Z,18
2017-06-28T04:44:31.474Z,18
2017-06-28T04:45:31.228Z,18
2017-06-28T04:46:31.253Z,18
2017-06-28T04:47:01.340Z,18
2017-06-28T04:48:28.744Z,17.9
2017-06-28T04:49:27.838Z,18
2017-06-28T04:50:27.432Z,18
2017-06-28T04:51:26.640Z,18
2017-06-28T04:52:25.875Z,17.9
2017-06-28T04:53:25.095Z,17.9
2017-06-28T04:54:24.201Z,17.9
2017-06-28T04:55:23.910Z,17.8
2017-06-28T04:56:23.439Z,17.8
2017-06-28T04:57:22.215Z,17.8
2017-06-28T04:58:21.690Z,17.8
2017-06-28T05:00:20.306Z,17.8
2017-06-28T05:01:19.512Z,17.8
2017-06-28T05:02:18.722Z,17.8
2017-06-28T05:03:17.990Z,17.8
2017-06-28T05:04:17.339Z,17.8
2017-06-28T05:05:16.328Z,17.8
2017-06-28T05:06:15.880Z,17.8
2017-06-28T05:07:15.080Z,17.8
2017-06-28T05:08:14.309Z,17.8
2017-06-28T05:09:13.522Z,17.8
2017-06-28T05:10:12.988Z,17.7
2017-06-28T05:11:12.089Z,17.7
2017-06-28T05:12:11.299Z,17.8
2017-06-28T05:13:11.021Z,17.8
2017-06-28T05:14:10.226Z,17.8
2017-06-28T05:15:09.436Z,17.8
2017-06-28T05:16:08.886Z,17.8
2017-06-28T05:16:38.907Z,17.8
2017-06-28T05:17:09.430Z,17.8
2017-06-28T05:17:39.945Z,17.8
2017-06-28T05:19:06.214Z,17.8
2017-06-28T05:20:05.928Z,17.8
2017-06-28T05:21:05.092Z,17.9
2017-06-28T05:22:04.618Z,17.9
2017-06-28T05:23:04.410Z,17.9
2017-06-28T05:24:03.121Z,17.9
2017-06-28T05:25:02.338Z,18
2017-06-28T05:26:02.143Z,18
2017-06-28T05:27:00.819Z,18
2017-06-28T05:28:00.284Z,18
2017-06-28T05:28:59.495Z,18
2017-06-28T05:29:58.807Z,18.1
2017-06-28T05:31:57.405Z,18.1
2017-06-28T05:32:56.620Z,18.1
2017-06-28T05:33:55.963Z,18.1
2017-06-28T05:34:55.186Z,18.1
2017-06-28T05:35:54.398Z,18.1
2017-06-28T05:36:53.614Z,18.1
2017-06-28T05:37:52.808Z,18.2
2017-06-28T05:38:23.331Z,18.2
2017-06-28T05:38:53.852Z,18.2
2017-06-28T05:39:24.130Z,18.2
2017-06-28T05:40:50.785Z,18.2
2017-06-28T05:41:49.872Z,18.3
2017-06-28T05:42:49.589Z,18.3
2017-06-28T05:43:48.570Z,18.3
2017-06-28T05:44:47.920Z,18.3
2017-06-28T05:45:47.133Z,18.3
2017-06-28T05:46:46.343Z,18.3
2017-06-28T05:47:45.984Z,18.3
2017-06-28T05:48:45.196Z,18.3
2017-06-28T05:49:44.413Z,18.3
2017-06-28T05:50:44.326Z,18.4
2017-06-28T05:51:43.040Z,18.4
2017-06-28T05:52:42.131Z,18.5
2017-06-28T05:53:41.424Z,18.5
2017-06-28T05:54:41.139Z,18.5
2017-06-28T05:55:40.346Z,18.5
2017-06-28T05:56:39.835Z,18.5
2017-06-28T05:57:38.818Z,18.5
2017-06-28T05:58:09.350Z,18.5
2017-06-28T06:00:36.521Z,18.5
2017-06-28T06:01:36.252Z,18.5
2017-06-28T06:02:35.764Z,18.5
2017-06-28T06:03:34.472Z,18.6
2017-06-28T06:04:34.228Z,18.5
2017-06-28T06:05:33.203Z,18.6
2017-06-28T06:06:32.412Z,18.6
2017-06-28T06:07:31.673Z,18.6
2017-06-28T06:08:31.549Z,18.6
2017-06-28T06:09:30.278Z,18.6
2017-06-28T06:10:29.767Z,18.6
2017-06-28T06:11:28.738Z,18.6
2017-06-28T06:12:28.339Z,18.7
2017-06-28T06:13:27.565Z,18.8
2017-06-28T06:14:27.427Z,18.8
2017-06-28T06:15:26.399Z,18.8
2017-06-28T06:16:25.613Z,18.8
2017-06-28T06:17:24.705Z,18.9
2017-06-28T06:18:24.424Z,18.9
2017-06-28T06:19:24.205Z,19
2017-06-28T06:20:23.164Z,19
2017-06-28T06:21:21.957Z,19
2017-06-28T06:22:21.179Z,19
2017-06-28T06:23:21.466Z,19.1
2017-06-28T06:24:20.181Z,19.1
2017-06-28T06:25:19.387Z,19.1
2017-06-28T06:26:18.743Z,19.1
2017-06-28T06:27:17.848Z,19.2
2017-06-28T06:28:17.062Z,19.1
2017-06-28T06:29:16.664Z,19.1
2017-06-28T06:30:15.879Z,19.2
2017-06-28T06:31:15.084Z,19.2
2017-06-28T06:32:14.931Z,19.2
2017-06-28T06:33:13.952Z,19.2
2017-06-28T06:34:13.175Z,19.3
2017-06-28T06:35:12.398Z,19.3
2017-06-28T06:36:11.490Z,19.3
2017-06-28T06:37:11.787Z,19.4
2017-06-28T06:38:10.646Z,19.5
2017-06-28T06:39:09.848Z,19.5
2017-06-28T06:40:08.824Z,19.5
2017-06-28T06:41:08.534Z,19.5
2017-06-28T06:42:07.517Z,19.5
2017-06-28T06:43:06.620Z,19.5
2017-06-28T06:44:06.623Z,19.6
2017-06-28T06:45:05.730Z,19.6
2017-06-28T06:46:04.838Z,19.6
2017-06-28T06:47:04.121Z,19.6
2017-06-28T06:48:03.759Z,19.7
2017-06-28T06:49:02.984Z,19.7
2017-06-28T06:50:02.335Z,19.7
2017-06-28T06:51:01.428Z,19.7
2017-06-28T06:52:00.647Z,19.8
2017-06-28T06:53:00.355Z,19.8
2017-06-28T06:53:59.566Z,19.8
2017-06-28T06:54:58.682Z,19.9
2017-06-28T06:55:58.655Z,19.9
2017-06-28T06:56:57.373Z,19.9
2017-06-28T06:57:57.089Z,20
2017-06-28T06:59:55.695Z,20.1
2017-06-28T07:00:54.908Z,20.1
2017-06-28T07:01:54.365Z,20.2
2017-06-28T07:02:53.591Z,20.2
2017-06-28T07:03:52.818Z,20.2
2017-06-28T07:04:52.034Z,20.3
2017-06-28T07:05:51.756Z,20.3
2017-06-28T07:06:22.296Z,20.3
2017-06-28T07:06:52.813Z,20.3
2017-06-28T07:07:23.338Z,20.3
2017-06-28T07:08:49.741Z,20.3
2017-06-28T07:09:48.722Z,20.3
2017-06-28T07:10:48.447Z,20.3
2017-06-28T07:11:47.667Z,20.3
2017-06-28T07:12:47.146Z,20.3
2017-06-28T07:13:46.362Z,20.3
2017-06-28T07:14:45.578Z,20.3
2017-06-28T07:15:45.373Z,20.3
2017-06-28T07:16:44.466Z,20.4
2017-06-28T07:17:43.571Z,20.5
2017-06-28T07:18:43.047Z,20.5
2017-06-28T07:19:42.146Z,20.5
2017-06-28T07:20:41.860Z,20.5
2017-06-28T07:21:40.826Z,20.5
2017-06-28T07:22:40.542Z,20.5
2017-06-28T07:23:39.524Z,20.5
2017-06-28T07:24:39.142Z,20.5
2017-06-28T07:25:38.185Z,20.5
2017-06-28T07:26:37.781Z,20.6
2017-06-28T07:27:36.992Z,20.6
2017-06-28T07:28:36.712Z,20.6
2017-06-28T07:29:35.812Z,20.6
2017-06-28T07:30:35.280Z,20.6
2017-06-28T07:31:34.507Z,20.6
2017-06-28T07:32:33.726Z,20.7
2017-06-28T07:33:33.262Z,20.6
2017-06-28T07:34:32.347Z,20.6
2017-06-28T07:35:32.057Z,20.7
2017-06-28T07:36:31.409Z,20.7
2017-06-28T07:37:30.495Z,20.8
2017-06-28T07:39:29.482Z,20.8
2017-06-28T07:40:28.692Z,20.8
2017-06-28T07:41:27.911Z,20.8
2017-06-28T07:42:27.770Z,20.8
2017-06-28T07:43:26.876Z,20.9
2017-06-28T07:44:26.101Z,21
2017-06-28T07:45:26.378Z,21
2017-06-28T07:46:25.088Z,21
2017-06-28T07:47:24.302Z,21
2017-06-28T07:48:23.767Z,21.1
2017-06-28T07:49:22.979Z,21.1
2017-06-28T07:50:22.187Z,21.1
2017-06-28T07:51:21.896Z,21.2
2017-06-28T07:52:21.107Z,21.3
2017-06-28T07:53:20.390Z,21.3
2017-06-28T07:54:19.853Z,21.3
2017-06-28T07:55:19.066Z,21.3
2017-06-28T07:56:18.547Z,21.3
2017-06-28T07:56:49.080Z,21.3
2017-06-28T07:58:17.264Z,21.4
2017-06-28T07:59:16.474Z,21.4
2017-06-28T08:00:16.332Z,21.4
2017-06-28T08:01:15.543Z,21.5
2017-06-28T08:02:14.550Z,21.5
2017-06-28T08:04:13.667Z,21.4
2017-06-28T08:05:12.786Z,21.5
2017-06-28T08:06:12.826Z,21.5
2017-06-28T08:07:11.536Z,21.5
2017-06-28T08:08:10.757Z,21.5
2017-06-28T08:09:10.469Z,21.5
2017-06-28T08:10:09.562Z,21.5
2017-06-28T08:10:40.084Z,21.5
2017-06-28T08:12:08.619Z,21.5
2017-06-28T08:13:07.830Z,21.6
2017-06-28T08:14:06.927Z,21.6
2017-06-28T08:15:06.639Z,21.6
2017-06-28T08:16:05.735Z,21.6
2017-06-28T08:16:36.145Z,21.6
2017-06-28T08:17:06.551Z,21.6
2017-06-28T08:17:37.068Z,21.6
2017-06-28T08:18:08.162Z,21.6
2017-06-28T08:19:03.849Z,21.8
2017-06-28T08:20:03.445Z,21.8
2017-06-28T08:21:02.804Z,21.8
2017-06-28T08:22:01.899Z,21.8
2017-06-28T08:23:01.865Z,21.8
2017-06-28T08:24:00.723Z,21.9
2017-06-28T08:25:01.003Z,21.9
2017-06-28T08:25:59.713Z,21.9
2017-06-28T08:26:58.800Z,22
2017-06-28T08:27:58.453Z,22
2017-06-28T08:28:57.804Z,22
2017-06-28T08:29:57.074Z,21.9
2017-06-28T08:30:57.065Z,21.9
2017-06-28T08:32:54.923Z,21.9
2017-06-28T08:33:54.653Z,21.9
2017-06-28T08:34:54.502Z,21.9
2017-06-28T08:35:53.727Z,22
2017-06-28T08:36:52.828Z,22
2017-06-28T08:37:52.553Z,22
2017-06-28T08:38:51.763Z,22
2017-06-28T08:39:50.645Z,22
2017-06-28T08:40:50.624Z,22
2017-06-28T08:41:49.603Z,22.1
2017-06-28T08:42:49.263Z,22.1
2017-06-28T08:43:48.469Z,22.1
2017-06-28T08:44:48.062Z,22.1
2017-06-28T08:45:47.267Z,22.1
2017-06-28T08:46:47.235Z,22.2
2017-06-28T08:47:46.447Z,22.2
2017-06-28T08:48:45.649Z,22.2
2017-06-28T08:49:44.860Z,22.3
2017-06-28T08:50:44.586Z,22.3
2017-06-28T08:51:43.568Z,22.3
2017-06-28T08:52:43.293Z,22.3
2017-06-28T08:53:42.508Z,22.3
2017-06-28T08:54:41.784Z,22.4
2017-06-28T08:55:41.385Z,22.4
2017-06-28T08:57:39.996Z,22.5
2017-06-28T08:58:39.849Z,22.6
2017-06-28T08:59:39.064Z,22.6
2017-06-28T09:00:09.585Z,22.6
2017-06-28T09:00:40.109Z,22.6
2017-06-28T09:01:37.810Z,22.6
2017-06-28T09:02:37.026Z,22.6
2017-06-28T09:03:36.755Z,22.6
2017-06-28T09:04:36.204Z,22.7
2017-06-28T09:05:35.335Z,22.7
2017-06-28T09:06:35.051Z,22.7
2017-06-28T09:07:34.133Z,22.6
2017-06-28T09:09:33.119Z,22.6
2017-06-28T09:10:32.600Z,22.6
2017-06-28T09:11:31.815Z,22.6
2017-06-28T09:12:31.414Z,22.6
2017-06-28T09:13:30.628Z,22.6
2017-06-28T09:14:30.347Z,22.6
2017-06-28T09:15:29.566Z,22.6
2017-06-28T09:16:29.541Z,22.6
2017-06-28T09:17:28.234Z,22.6
2017-06-28T09:18:27.594Z,22.6
2017-06-28T09:19:27.186Z,22.6
2017-06-28T09:20:27.462Z,22.6
2017-06-28T09:20:57.376Z,22.6
2017-06-28T09:21:27.780Z,22.6
2017-06-28T09:21:58.297Z,22.6
2017-06-28T09:22:28.827Z,22.6
2017-06-28T09:23:25.011Z,22.6
2017-06-28T09:24:24.233Z,22.7
2017-06-28T09:25:23.828Z,22.7
2017-06-28T09:26:23.418Z,22.7
2017-06-28T09:27:22.884Z,22.7
2017-06-28T09:28:22.102Z,22.7
2017-06-28T09:29:22.232Z,22.7
2017-06-28T09:30:20.937Z,22.7
2017-06-28T09:32:19.928Z,22.8
2017-06-28T09:33:19.449Z,22.9
2017-06-28T09:34:18.559Z,22.9
2017-06-28T09:35:18.284Z,22.9
2017-06-28T09:36:17.489Z,22.9
2017-06-28T09:37:17.201Z,22.9
2017-06-28T09:38:16.406Z,23
2017-06-28T09:39:16.271Z,22.9
2017-06-28T09:40:15.368Z,22.9
2017-06-28T09:41:14.981Z,23
2017-06-28T09:42:14.080Z,23
2017-06-28T09:43:13.698Z,23
2017-06-28T09:44:12.986Z,23
2017-06-28T09:45:12.951Z,23
2017-06-28T09:46:12.171Z,23
2017-06-28T09:47:11.147Z,23
2017-06-28T09:48:10.872Z,23
2017-06-28T09:49:10.479Z,23
2017-06-28T09:50:09.684Z,23
2017-06-28T09:51:09.534Z,23
2017-06-28T09:52:08.754Z,23
2017-06-28T09:53:07.968Z,23.1
2017-06-28T09:54:07.691Z,23.1
2017-06-28T09:55:06.911Z,23.1
2017-06-28T09:56:06.628Z,23.1
2017-06-28T09:57:06.098Z,23.1
2017-06-28T09:58:05.315Z,23.1
2017-06-28T09:59:04.803Z,23.1
2017-06-28T10:00:04.411Z,23
2017-06-28T10:01:03.614Z,23
2017-06-28T10:02:03.402Z,23
2017-06-28T10:03:02.863Z,23
2017-06-28T10:04:01.852Z,23
2017-06-28T10:05:01.584Z,23
2017-06-28T10:06:01.308Z,23
2017-06-28T10:07:00.400Z,23
2017-06-28T10:07:59.992Z,23
2017-06-28T10:08:59.344Z,23
2017-06-28T10:09:59.062Z,22.9
2017-06-28T10:10:58.197Z,22.9
2017-06-28T10:11:57.916Z,22.9
2017-06-28T10:12:56.767Z,22.9
2017-06-28T10:13:56.533Z,22.9
2017-06-28T10:14:56.498Z,22.9
2017-06-28T10:15:55.729Z,22.9
2017-06-28T10:16:54.937Z,22.9
2017-06-28T10:17:54.658Z,22.9
2017-06-28T10:18:24.955Z,22.9
2017-06-28T10:19:53.362Z,22.8
2017-06-28T10:20:53.321Z,22.8
2017-06-28T10:21:52.533Z,22.8
2017-06-28T10:22:52.305Z,22.8
2017-06-28T10:23:51.010Z,22.8
2017-06-28T10:24:50.601Z,22.7
2017-06-28T10:25:49.815Z,22.7
2017-06-28T10:26:49.431Z,22.7
2017-06-28T10:27:49.024Z,22.6
2017-06-28T10:28:48.114Z,22.6
2017-06-28T10:29:47.821Z,22.6
2017-06-28T10:30:46.920Z,22.6
2017-06-28T10:31:46.396Z,22.6
2017-06-28T10:32:46.135Z,22.6
2017-06-28T10:33:45.337Z,22.6
2017-06-28T10:34:45.063Z,22.6
2017-06-28T10:35:44.161Z,22.5
2017-06-28T10:36:43.523Z,22.5
2017-06-28T10:37:43.106Z,22.5
2017-06-28T10:39:42.467Z,22.5
2017-06-28T10:40:41.701Z,22.5
2017-06-28T10:41:40.828Z,22.5
2017-06-28T10:42:40.435Z,22.5
2017-06-28T10:43:39.538Z,22.5
2017-06-28T10:44:39.255Z,22.5
2017-06-28T10:45:38.725Z,22.4
2017-06-28T10:46:37.938Z,22.4
2017-06-28T10:47:37.415Z,22.4
2017-06-28T10:48:37.436Z,22.3
2017-06-28T10:49:36.026Z,22.3
2017-06-28T10:50:35.626Z,22.3
2017-06-28T10:51:35.093Z,22.3
2017-06-28T10:52:34.298Z,22.3
2017-06-28T10:53:34.012Z,22.3
2017-06-28T10:54:33.306Z,22.3
2017-06-28T10:55:32.400Z,22.3
2017-06-28T10:56:31.988Z,22.3
2017-06-28T10:57:31.948Z,22.3
2017-06-28T10:58:31.160Z,22.3
2017-06-28T10:59:30.374Z,22.3
2017-06-28T11:00:29.346Z,22.3
2017-06-28T11:01:28.824Z,22.3
2017-06-28T11:02:28.422Z,22.3
2017-06-28T11:03:28.384Z,22.3
2017-06-28T11:04:27.098Z,22.2
2017-06-28T11:05:26.823Z,22.2
2017-06-28T11:06:25.917Z,22.1
2017-06-28T11:07:26.214Z,22.1
2017-06-28T11:08:24.950Z,22.1
2017-06-28T11:09:24.310Z,22.1
2017-06-28T11:10:24.090Z,22.1
2017-06-28T11:11:23.261Z,22
2017-06-28T11:12:22.368Z,22
2017-06-28T11:13:22.093Z,22
2017-06-28T11:14:21.323Z,21.9
2017-06-28T11:15:21.168Z,22
2017-06-28T11:16:20.377Z,22
2017-06-28T11:17:19.600Z,22
2017-06-28T11:18:18.708Z,22
2017-06-28T11:19:18.431Z,22
2017-06-28T11:20:17.640Z,21.9
2017-06-28T11:21:17.606Z,21.9
2017-06-28T11:21:47.495Z,21.9
2017-06-28T11:22:18.023Z,21.9
2017-06-28T11:23:15.727Z,21.8
2017-06-28T11:24:15.450Z,21.8
2017-06-28T11:25:14.569Z,21.9
2017-06-28T11:26:14.294Z,21.9
2017-06-28T11:27:13.758Z,22
2017-06-28T11:28:12.971Z,22
2017-06-28T11:29:12.069Z,22
2017-06-28T11:30:12.232Z,22
2017-06-28T11:30:42.264Z,22
2017-06-28T11:32:10.664Z,22
2017-06-28T11:33:10.138Z,22
2017-06-28T11:34:09.235Z,22
2017-06-28T11:36:07.719Z,22
2017-06-28T11:37:07.428Z,22
2017-06-28T11:38:06.533Z,22
2017-06-28T11:39:06.522Z,22
2017-06-28T11:40:05.739Z,22.1
2017-06-28T11:41:04.712Z,22.1
2017-06-28T11:42:04.313Z,22.1
2017-06-28T11:43:03.470Z,22.1
2017-06-28T11:44:03.187Z,22.1
2017-06-28T11:45:02.534Z,22.1
2017-06-28T11:46:02.131Z,22.1
2017-06-28T11:47:01.409Z,22.1
2017-06-28T11:48:00.614Z,22.1
2017-06-28T11:48:59.817Z,22.1
2017-06-28T11:49:59.526Z,22
2017-06-28T11:50:59.003Z,22
2017-06-28T11:51:58.103Z,22
2017-06-28T11:52:57.818Z,22
2017-06-28T11:53:57.039Z,22
2017-06-28T11:54:56.251Z,22
2017-06-28T11:55:55.852Z,22
2017-06-28T11:56:55.311Z,22
2017-06-28T11:57:54.568Z,22
2017-06-28T11:58:53.800Z,22
2017-06-28T11:59:53.399Z,22.1
2017-06-28T12:00:52.605Z,22.1
2017-06-28T12:01:52.764Z,22.1
2017-06-28T12:02:51.620Z,22.1
2017-06-28T12:03:50.830Z,22.1
2017-06-28T12:04:50.185Z,22.1
2017-06-28T12:05:49.788Z,22.1
2017-06-28T12:06:48.889Z,22.1
2017-06-28T12:07:48.482Z,22
2017-06-28T12:08:48.347Z,22
2017-06-28T12:09:47.069Z,22
2017-06-28T12:10:46.777Z,22
2017-06-28T12:11:45.993Z,22.1
2017-06-28T12:13:45.113Z,22.1
2017-06-28T12:14:44.459Z,22.1
2017-06-28T12:15:43.674Z,22.1
2017-06-28T12:16:42.904Z,22.1
2017-06-28T12:17:42.629Z,22.1
2017-06-28T12:18:13.189Z,22.1
2017-06-28T12:18:43.602Z,22.1
2017-06-28T12:19:41.729Z,22.1
2017-06-28T12:20:41.250Z,22.1
2017-06-28T12:21:39.840Z,22.1
2017-06-28T12:22:39.306Z,22.1
2017-06-28T12:23:39.029Z,22.1
2017-06-28T12:24:38.238Z,22.1
2017-06-28T12:25:37.953Z,22.1
2017-06-28T12:26:37.300Z,22.2
2017-06-28T12:27:36.384Z,22.1
2017-06-28T12:28:35.938Z,22.2
2017-06-28T12:29:35.421Z,22.1
2017-06-28T12:30:34.530Z,22.2
2017-06-28T12:31:34.244Z,22.2
2017-06-28T12:32:33.715Z,22.2
2017-06-28T12:33:32.926Z,22.2
2017-06-28T12:34:32.644Z,22.2
2017-06-28T12:35:31.733Z,22.2
2017-06-28T12:36:31.332Z,22.2
2017-06-28T12:37:30.827Z,22.2
2017-06-28T12:38:30.172Z,22.2
2017-06-28T12:39:00.684Z,22.2
2017-06-28T12:39:31.208Z,22.1
2017-06-28T12:40:02.310Z,22.1
2017-06-28T12:40:32.421Z,22.1
2017-06-28T12:41:28.605Z,22.1
2017-06-28T12:42:27.812Z,22.1
2017-06-28T12:43:27.542Z,22.3
2017-06-28T12:44:26.999Z,22.3
2017-06-28T12:45:26.120Z,22.3
2017-06-28T12:46:25.836Z,22.3
2017-06-28T12:47:24.929Z,22.3
2017-06-28T12:48:24.658Z,22.2
2017-06-28T12:49:23.879Z,22.3
2017-06-28T12:50:23.850Z,22.3
2017-06-28T12:51:23.059Z,22.3
2017-06-28T12:52:22.160Z,22.3
2017-06-28T12:53:21.873Z,22.3
2017-06-28T12:54:21.103Z,22.3
2017-06-28T12:55:20.598Z,22.3
2017-06-28T12:56:20.456Z,22.3
2017-06-28T12:57:20.239Z,22.2
2017-06-28T12:58:19.288Z,22.3
2017-06-28T12:58:49.310Z,22.3
2017-06-28T13:00:17.468Z,22.3
2017-06-28T13:01:17.175Z,22.3
2017-06-28T13:02:16.644Z,22.3
2017-06-28T13:03:15.859Z,22.4
2017-06-28T13:04:16.162Z,22.4
2017-06-28T13:05:14.628Z,22.4
2017-06-28T13:06:14.227Z,22.4
2017-06-28T13:07:13.949Z,22.4
2017-06-28T13:08:13.372Z,22.4
2017-06-28T13:09:12.485Z,22.5
2017-06-28T13:10:12.208Z,22.4
2017-06-28T13:11:11.307Z,22.4
2017-06-28T13:12:10.916Z,22.4
2017-06-28T13:13:10.197Z,22.3
2017-06-28T13:14:10.165Z,22.2
2017-06-28T13:15:09.296Z,22.3
2017-06-28T13:16:08.523Z,22.3
2017-06-28T13:17:08.244Z,22.3
2017-06-28T13:18:07.461Z,22.3
2017-06-28T13:19:07.171Z,22.3